createdAt,value
2023-02-10T00:00:48.175Z,26.20
2023-02-10T00:01:51.046Z,28.52
2023-02-10T00:03:08.265Z,27.67
2023-02-10T00:04:20.741Z,25.75
2023-02-10T00:05:22.735Z,25.85
2023-02-10T00:06:27.527Z,26.65
2023-02-10T00:07:29.337Z,25.63
2023-02-10T00:08:32.367Z,28.65
2023-02-10T00:09:34.872Z,29.38
2023-02-10T00:10:36.423Z,29.30
2023-02-10T00:11:56.494Z,28.13
2023-02-10T00:12:59.023Z,26.80
2023-02-10T00:14:00.552Z,25.67
2023-02-10T00:15:03.105Z,25.73
2023-02-10T00:16:08.662Z,26.33
2023-02-10T00:17:19.975Z,25.55
2023-02-10T00:18:21.581Z,27.73
2023-02-10T00:19:26.624Z,26.63
2023-02-10T00:20:28.151Z,26.48
2023-02-10T00:21:30.882Z,26.13
2023-02-10T00:22:33.461Z,25.30
2023-02-10T00:23:35.992Z,27.80
2023-02-10T00:24:48.484Z,25.35
2023-02-10T00:25:50.975Z,27.15
2023-02-10T00:26:54.345Z,28.02
2023-02-10T00:27:56.871Z,26.70
2023-02-10T00:28:58.436Z,27.65
2023-02-10T00:30:00.917Z,25.90
2023-02-10T00:31:07.586Z,26.83
2023-02-10T00:32:11.431Z,27.55
2023-02-10T00:33:20.342Z,25.50
2023-02-10T00:34:22.243Z,27.30
2023-02-10T00:35:25.653Z,28.02
2023-02-10T00:36:27.283Z,28.45
2023-02-10T00:37:30.126Z,28.48
2023-02-10T00:38:32.677Z,26.42
2023-02-10T00:39:46.470Z,27.20
2023-02-10T00:40:48.065Z,26.60
2023-02-10T00:41:50.629Z,27.65
2023-02-10T00:42:52.427Z,27.48
2023-02-10T00:43:55.020Z,27.13
2023-02-10T00:44:56.600Z,26.83
2023-02-10T00:45:59.146Z,27.45
2023-02-10T00:47:02.142Z,29.83
2023-02-10T00:48:04.792Z,26.70
2023-02-10T00:49:07.075Z,26.90
2023-02-10T00:50:09.769Z,25.73
2023-02-10T00:51:12.196Z,27.42
2023-02-10T00:52:15.301Z,28.67
2023-02-10T00:53:27.023Z,27.15
2023-02-10T00:54:29.474Z,25.90
2023-02-10T00:55:30.975Z,28.45
2023-02-10T00:56:33.552Z,27.08
2023-02-10T00:57:36.017Z,26.52
2023-02-10T00:58:37.890Z,25.10
2023-02-10T00:59:40.376Z,28.90
2023-02-10T01:00:42.538Z,27.50
2023-02-10T01:01:45.606Z,28.02
2023-02-10T01:02:48.513Z,28.63
2023-02-10T01:03:51.123Z,28.20
2023-02-10T01:04:52.662Z,26.60
2023-02-10T01:05:55.347Z,27.45
2023-02-10T01:07:07.962Z,26.20
2023-02-10T01:08:19.600Z,25.80
2023-02-10T01:09:22.448Z,27.23
2023-02-10T01:10:24.234Z,27.73
2023-02-10T01:11:26.716Z,28.25
2023-02-10T01:12:35.973Z,28.23
2023-02-10T01:13:38.979Z,28.05
2023-02-10T01:14:41.451Z,25.92
2023-02-10T01:15:44.071Z,25.45
2023-02-10T01:16:46.784Z,27.80
2023-02-10T01:17:49.671Z,28.38
2023-02-10T01:18:52.422Z,28.60
2023-02-10T01:19:54.022Z,27.05
2023-02-10T01:20:56.499Z,28.40
2023-02-10T01:21:59.040Z,29.05
2023-02-10T01:23:02.113Z,25.13
2023-02-10T01:24:04.624Z,26.13
2023-02-10T01:25:07.857Z,27.77
2023-02-10T01:26:09.862Z,27.05
2023-02-10T01:27:12.373Z,26.33
2023-02-10T01:28:14.001Z,26.38
2023-02-10T01:29:16.564Z,27.38
2023-02-10T01:30:18.125Z,27.02
2023-02-10T01:31:22.031Z,27.15
2023-02-10T01:32:24.023Z,26.55
2023-02-10T01:33:28.047Z,27.58
2023-02-10T01:34:29.763Z,26.25
2023-02-10T01:35:35.092Z,26.80
2023-02-10T01:36:37.685Z,27.60
2023-02-10T01:37:39.238Z,27.42
2023-02-10T01:38:42.575Z,27.92
2023-02-10T01:39:44.245Z,28.40
2023-02-10T01:40:51.084Z,26.98
2023-02-10T01:41:53.565Z,27.98
2023-02-10T01:42:56.434Z,28.17
2023-02-10T01:44:47.732Z,27.27
2023-02-10T01:46:00.514Z,26.60
2023-02-10T01:47:04.823Z,26.67
2023-02-10T01:48:17.948Z,27.33
2023-02-10T01:49:24.854Z,26.33
2023-02-10T01:50:31.180Z,26.33
2023-02-10T01:51:38.993Z,27.60
2023-02-10T01:52:43.907Z,25.52
2023-02-10T01:53:45.516Z,28.05
2023-02-10T01:54:53.462Z,26.23
2023-02-10T01:55:58.925Z,27.20
2023-02-10T01:57:01.564Z,25.85
2023-02-10T01:58:06.972Z,27.92
2023-02-10T01:59:09.750Z,26.95
2023-02-10T02:00:20.110Z,26.85
2023-02-10T02:01:23.200Z,27.80
2023-02-10T02:02:26.812Z,28.10
2023-02-10T02:03:29.267Z,26.40
2023-02-10T02:04:33.150Z,27.73
2023-02-10T02:05:37.392Z,28.50
2023-02-10T02:06:42.019Z,27.08
2023-02-10T02:07:44.657Z,26.65
2023-02-10T02:08:47.901Z,28.17
2023-02-10T02:10:01.299Z,29.27
2023-02-10T02:11:21.058Z,27.13
2023-02-10T02:12:44.126Z,25.95
2023-02-10T02:14:02.889Z,25.52
2023-02-10T02:15:12.101Z,26.27
2023-02-10T02:16:27.319Z,29.13
2023-02-10T02:17:40.585Z,26.55
2023-02-10T02:18:49.708Z,27.08
2023-02-10T02:20:44.815Z,29.08
2023-02-10T02:22:12.414Z,27.60
2023-02-10T02:23:25.146Z,24.63
2023-02-10T02:24:47.649Z,28.02
2023-02-10T02:26:15.088Z,25.83
2023-02-10T02:27:39.424Z,28.30
2023-02-10T02:29:01.117Z,28.35
2023-02-10T02:30:30.332Z,26.20
2023-02-10T02:32:00.735Z,26.00
2023-02-10T02:33:05.300Z,26.85
2023-02-10T02:34:12.370Z,28.52
2023-02-10T02:35:18.306Z,28.67
2023-02-10T02:36:26.998Z,31.30
2023-02-10T02:37:37.389Z,28.08
2023-02-10T02:38:49.877Z,27.25
2023-02-10T02:39:56.653Z,27.85
2023-02-10T02:40:59.794Z,28.85
2023-02-10T02:42:20.498Z,26.58
2023-02-10T02:43:23.378Z,27.58
2023-02-10T02:44:25.147Z,31.50
2023-02-10T02:45:36.539Z,28.17
2023-02-10T02:46:51.259Z,28.95
2023-02-10T02:48:06.388Z,28.75
2023-02-10T02:49:14.228Z,27.55
2023-02-10T02:50:25.544Z,27.85
2023-02-10T02:51:40.660Z,29.10
2023-02-10T02:52:56.570Z,28.65
2023-02-10T02:54:06.026Z,26.70
2023-02-10T02:55:14.565Z,28.08
2023-02-10T02:56:26.477Z,29.35
2023-02-10T02:57:37.722Z,28.02
2023-02-10T02:58:54.084Z,28.42
2023-02-10T03:00:02.777Z,28.88
2023-02-10T03:01:15.585Z,28.35
2023-02-10T03:02:21.633Z,29.17
2023-02-10T03:03:24.192Z,28.73
2023-02-10T03:04:31.337Z,28.92
2023-02-10T03:05:33.717Z,28.20
2023-02-10T03:06:36.337Z,28.33
2023-02-10T03:07:37.894Z,29.58
2023-02-10T03:08:42.950Z,26.67
2023-02-10T03:09:44.673Z,27.67
2023-02-10T03:10:47.178Z,29.15
2023-02-10T03:11:49.379Z,30.77
2023-02-10T03:13:01.881Z,28.10
2023-02-10T03:14:13.489Z,28.88
2023-02-10T03:15:26.236Z,27.65
2023-02-10T03:16:27.885Z,28.13
2023-02-10T03:17:31.770Z,29.77
2023-02-10T03:18:33.385Z,29.95
2023-02-10T03:19:35.977Z,28.17
2023-02-10T03:20:37.683Z,29.55
2023-02-10T03:21:40.283Z,28.88
2023-02-10T03:22:42.345Z,28.90
2023-02-10T03:23:44.922Z,28.17
2023-02-10T03:24:46.450Z,29.35
2023-02-10T03:25:50.019Z,26.13
2023-02-10T03:26:52.418Z,27.42
2023-02-10T03:28:06.437Z,27.42
2023-02-10T03:29:19.042Z,27.67
2023-02-10T03:30:20.724Z,29.48
2023-02-10T03:31:24.032Z,27.52
2023-02-10T03:32:25.704Z,30.15
2023-02-10T03:33:29.608Z,29.48
2023-02-10T03:34:31.156Z,27.38
2023-02-10T03:35:37.567Z,29.73
2023-02-10T03:36:39.172Z,25.92
2023-02-10T03:37:41.729Z,28.83
2023-02-10T03:38:43.344Z,29.90
2023-02-10T03:39:46.150Z,30.63
2023-02-10T03:40:50.313Z,31.83
2023-02-10T03:42:02.816Z,37.20
2023-02-10T03:43:11.160Z,35.88
2023-02-10T03:44:23.713Z,36.90
2023-02-10T03:45:25.401Z,40.90
2023-02-10T03:46:28.043Z,41.30
2023-02-10T03:47:29.614Z,40.42
2023-02-10T03:48:33.666Z,42.17
2023-02-10T03:49:35.180Z,41.67
2023-02-10T03:50:39.185Z,38.53
2023-02-10T03:51:40.818Z,39.65
2023-02-10T03:52:43.360Z,41.38
2023-02-10T03:53:53.917Z,40.10
2023-02-10T03:54:57.639Z,40.47
2023-02-10T03:56:00.659Z,40.03
2023-02-10T03:57:03.153Z,38.28
2023-02-10T03:58:04.863Z,37.03
2023-02-10T03:59:07.775Z,38.35
2023-02-10T04:00:10.446Z,35.58
2023-02-10T04:01:22.165Z,36.05
2023-02-10T04:02:23.779Z,35.30
2023-02-10T04:03:26.398Z,38.60
2023-02-10T04:04:39.298Z,39.90
2023-02-10T04:05:51.805Z,38.85
2023-02-10T04:06:53.336Z,37.63
2023-02-10T04:07:59.503Z,38.55
2023-02-10T04:09:01.081Z,37.28
2023-02-10T04:10:04.321Z,33.95
2023-02-10T04:11:07.417Z,35.60
2023-02-10T04:12:09.932Z,34.33
2023-02-10T04:13:11.474Z,33.30
2023-02-10T04:14:14.011Z,30.40
2023-02-10T04:15:15.748Z,30.25
2023-02-10T04:16:20.602Z,32.60
2023-02-10T04:17:22.187Z,30.25
2023-02-10T04:18:24.786Z,29.58
2023-02-10T04:19:26.371Z,29.38
2023-02-10T04:20:32.361Z,28.95
2023-02-10T04:21:35.461Z,28.15
2023-02-10T04:22:47.954Z,29.27
2023-02-10T04:24:00.507Z,28.50
2023-02-10T04:25:02.103Z,27.95
2023-02-10T04:26:05.784Z,29.38
2023-02-10T04:27:07.427Z,29.75
2023-02-10T04:28:09.991Z,32.42
2023-02-10T04:29:14.776Z,30.85
2023-02-10T04:30:17.436Z,29.15
2023-02-10T04:31:19.229Z,30.70
2023-02-10T04:32:22.135Z,28.50
2023-02-10T04:33:33.692Z,28.17
2023-02-10T04:34:46.229Z,29.13
2023-02-10T04:35:59.283Z,26.75
2023-02-10T04:37:01.825Z,30.48
2023-02-10T04:38:04.312Z,29.02
2023-02-10T04:39:06.860Z,28.85
2023-02-10T04:40:09.471Z,26.98
2023-02-10T04:41:12.344Z,28.45
2023-02-10T04:42:13.941Z,30.10
2023-02-10T04:43:17.019Z,30.27
2023-02-10T04:44:18.561Z,29.58
2023-02-10T04:45:21.059Z,29.90
2023-02-10T04:46:23.594Z,26.60
2023-02-10T04:47:26.918Z,29.55
2023-02-10T04:48:28.457Z,31.63
2023-02-10T04:49:31.003Z,26.77
2023-02-10T04:50:33.193Z,29.92
2023-02-10T04:51:37.048Z,29.88
2023-02-10T04:52:39.992Z,29.05
2023-02-10T04:53:49.153Z,26.92
2023-02-10T04:55:00.707Z,28.33
2023-02-10T04:56:13.246Z,27.23
2023-02-10T04:57:24.840Z,29.23
2023-02-10T04:58:27.421Z,28.63
2023-02-10T04:59:28.979Z,27.65
2023-02-10T05:00:31.769Z,27.27
2023-02-10T05:01:33.572Z,28.75
2023-02-10T05:02:36.197Z,30.33
2023-02-10T05:03:37.739Z,28.05
2023-02-10T05:04:40.284Z,28.75
2023-02-10T05:05:41.877Z,29.83
2023-02-10T05:06:45.818Z,30.65
2023-02-10T05:07:47.439Z,28.20
2023-02-10T05:08:59.956Z,27.40
2023-02-10T05:10:05.546Z,28.83
2023-02-10T05:11:09.856Z,29.10
2023-02-10T05:12:21.500Z,27.88
2023-02-10T05:13:33.988Z,28.48
2023-02-10T05:14:42.717Z,28.33
2023-02-10T05:15:45.886Z,28.25
2023-02-10T05:16:47.570Z,30.08
2023-02-10T05:17:50.139Z,29.00
2023-02-10T05:18:51.717Z,28.58
2023-02-10T05:19:54.278Z,30.95
2023-02-10T05:20:55.835Z,29.42
2023-02-10T05:21:59.899Z,29.33
2023-02-10T05:23:01.524Z,28.23
2023-02-10T05:24:04.486Z,28.48
2023-02-10T05:25:07.218Z,25.73
2023-02-10T05:26:10.723Z,27.20
2023-02-10T05:27:22.294Z,28.80
2023-02-10T05:28:25.064Z,28.88
2023-02-10T05:29:26.950Z,28.77
2023-02-10T05:30:29.536Z,27.88
2023-02-10T05:31:41.301Z,28.40
2023-02-10T05:32:44.209Z,29.20
2023-02-10T05:33:45.811Z,28.58
2023-02-10T05:34:48.379Z,28.67
2023-02-10T05:35:50.123Z,28.55
2023-02-10T05:36:52.703Z,31.02
2023-02-10T05:38:05.605Z,29.00
2023-02-10T05:39:27.231Z,29.15
2023-02-10T05:40:29.887Z,30.17
2023-02-10T05:41:42.372Z,30.15
2023-02-10T05:42:54.930Z,31.35
2023-02-10T05:43:56.569Z,30.42
2023-02-10T05:45:06.664Z,32.55
2023-02-10T05:46:08.194Z,32.92
2023-02-10T05:47:10.711Z,33.53
2023-02-10T05:48:12.229Z,35.92
2023-02-10T05:49:15.183Z,33.38
2023-02-10T05:50:16.922Z,33.70
2023-02-10T05:51:23.662Z,35.40
2023-02-10T05:52:25.217Z,38.05
2023-02-10T05:53:29.145Z,40.42
2023-02-10T05:54:33.399Z,37.10
2023-02-10T05:55:47.946Z,37.10
2023-02-10T05:56:51.360Z,39.75
2023-02-10T05:57:53.164Z,39.53
2023-02-10T05:58:56.767Z,40.83
2023-02-10T05:59:58.375Z,39.85
2023-02-10T06:01:00.969Z,38.28
2023-02-10T06:02:02.593Z,39.42
2023-02-10T06:03:07.143Z,39.10
2023-02-10T06:04:16.526Z,40.15
2023-02-10T06:05:28.136Z,39.70
2023-02-10T06:06:37.168Z,40.35
2023-02-10T06:07:39.431Z,41.53
2023-02-10T06:08:43.648Z,39.65
2023-02-10T06:09:47.400Z,40.00
2023-02-10T06:10:50.080Z,37.78
2023-02-10T06:11:52.054Z,37.95
2023-02-10T06:12:54.798Z,40.03
2023-02-10T06:13:56.509Z,39.08
2023-02-10T06:14:59.036Z,39.60
2023-02-10T06:16:02.323Z,38.35
2023-02-10T06:17:04.864Z,40.22
2023-02-10T06:18:06.421Z,40.30
2023-02-10T06:19:08.903Z,40.65
2023-02-10T06:20:11.460Z,37.03
2023-02-10T06:21:20.128Z,39.28
2023-02-10T06:22:32.658Z,37.63
2023-02-10T06:23:46.680Z,41.85
2023-02-10T06:24:48.480Z,39.15
2023-02-10T06:25:55.122Z,38.72
2023-02-10T06:26:56.886Z,44.65
2023-02-10T06:27:59.464Z,39.90
2023-02-10T06:29:01.488Z,38.47
2023-02-10T06:30:09.775Z,41.50
2023-02-10T06:31:21.502Z,41.20
2023-02-10T06:32:34.226Z,42.95
2023-02-10T06:33:45.913Z,41.20
2023-02-10T06:34:48.129Z,41.38
2023-02-10T06:35:50.963Z,42.45
2023-02-10T06:36:53.548Z,44.72
2023-02-10T06:37:55.115Z,41.08
2023-02-10T06:38:59.023Z,42.63
2023-02-10T06:40:00.579Z,40.60
2023-02-10T06:41:03.631Z,41.92
2023-02-10T06:42:06.344Z,39.53
2023-02-10T06:43:18.857Z,40.20
2023-02-10T06:44:21.992Z,39.33
2023-02-10T06:45:24.397Z,38.30
2023-02-10T06:46:36.995Z,35.80
2023-02-10T06:47:48.564Z,39.30
2023-02-10T06:48:51.139Z,38.47
2023-02-10T06:49:52.675Z,38.08
2023-02-10T06:50:55.212Z,37.53
2023-02-10T06:51:57.003Z,35.70
2023-02-10T06:52:59.633Z,36.35
2023-02-10T06:54:02.490Z,38.30
2023-02-10T06:55:05.777Z,36.88
2023-02-10T06:56:07.425Z,39.53
2023-02-10T06:57:10.033Z,33.00
2023-02-10T06:58:11.756Z,34.10
2023-02-10T06:59:15.040Z,33.65
2023-02-10T07:00:17.258Z,34.20
2023-02-10T07:01:31.386Z,33.63
2023-02-10T07:02:33.060Z,32.88
2023-02-10T07:03:35.791Z,30.85
2023-02-10T07:04:37.747Z,30.65
2023-02-10T07:05:41.346Z,31.63
2023-02-10T07:06:53.122Z,31.80
2023-02-10T07:07:55.054Z,32.35
2023-02-10T07:08:57.616Z,30.42
2023-02-10T07:10:00.554Z,32.05
2023-02-10T07:11:08.022Z,32.53
2023-02-10T07:12:11.360Z,33.40
2023-02-10T07:13:23.830Z,32.30
2023-02-10T07:14:27.866Z,31.63
2023-02-10T07:15:30.573Z,30.83
2023-02-10T07:16:32.383Z,32.90
2023-02-10T07:17:36.807Z,32.90
2023-02-10T07:18:39.338Z,34.40
2023-02-10T07:19:40.919Z,33.92
2023-02-10T07:20:43.422Z,33.10
2023-02-10T07:21:45.102Z,31.73
2023-02-10T07:22:57.582Z,32.00
2023-02-10T07:24:10.232Z,29.77
2023-02-10T07:25:24.202Z,31.00
2023-02-10T07:26:36.822Z,29.98
2023-02-10T07:27:38.737Z,31.25
2023-02-10T07:28:41.708Z,28.88
2023-02-10T07:29:43.517Z,30.83
2023-02-10T07:30:46.148Z,31.45
2023-02-10T07:31:47.826Z,31.20
2023-02-10T07:32:50.350Z,29.98
2023-02-10T07:33:52.463Z,30.15
2023-02-10T07:34:54.951Z,31.00
2023-02-10T07:36:00.522Z,27.02
2023-02-10T07:37:03.491Z,29.00
2023-02-10T07:38:15.056Z,30.80
2023-02-10T07:39:27.783Z,28.52
2023-02-10T07:40:31.655Z,31.88
2023-02-10T07:41:33.258Z,29.17
2023-02-10T07:42:35.997Z,28.88
2023-02-10T07:43:38.789Z,28.20
2023-02-10T07:44:40.532Z,28.13
2023-02-10T07:45:51.521Z,26.85
2023-02-10T07:46:55.664Z,28.58
2023-02-10T07:48:08.171Z,27.40
2023-02-10T07:49:21.069Z,28.08
2023-02-10T07:50:34.730Z,29.15
2023-02-10T07:51:37.808Z,28.42
2023-02-10T07:52:50.445Z,28.60
2023-02-10T07:53:52.024Z,28.63
2023-02-10T07:54:55.455Z,28.73
2023-02-10T07:56:01.280Z,30.20
2023-02-10T07:57:03.898Z,29.52
2023-02-10T07:58:06.591Z,29.40
2023-02-10T07:59:08.561Z,28.15
2023-02-10T08:00:13.112Z,28.20
2023-02-10T08:01:27.532Z,27.88
2023-02-10T08:02:30.482Z,26.98
2023-02-10T08:03:42.981Z,27.15
2023-02-10T08:04:45.707Z,28.55
2023-02-10T08:05:48.833Z,29.75
2023-02-10T08:06:54.036Z,29.15
2023-02-10T08:07:55.853Z,28.52
2023-02-10T08:08:58.987Z,30.85
2023-02-10T08:10:03.910Z,29.33
2023-02-10T08:11:08.115Z,30.50
2023-02-10T08:12:10.669Z,29.88
2023-02-10T08:13:14.655Z,30.13
2023-02-10T08:14:20.696Z,30.25
2023-02-10T08:15:33.263Z,25.88
2023-02-10T08:16:41.571Z,30.77
2023-02-10T08:17:44.300Z,27.52
2023-02-10T08:18:46.870Z,28.92
2023-02-10T08:19:49.391Z,29.02
2023-02-10T08:21:00.538Z,26.08
2023-02-10T08:22:02.058Z,30.35
2023-02-10T08:23:04.608Z,28.92
2023-02-10T08:24:06.462Z,29.23
2023-02-10T08:25:09.821Z,27.23
2023-02-10T08:26:14.525Z,28.13
2023-02-10T08:27:20.443Z,28.75
2023-02-10T08:28:33.057Z,28.73
2023-02-10T08:29:35.873Z,27.42
2023-02-10T08:30:38.690Z,27.88
2023-02-10T08:31:41.398Z,29.30
2023-02-10T08:32:43.009Z,28.40
2023-02-10T08:33:47.214Z,27.52
2023-02-10T08:34:50.817Z,29.80
2023-02-10T08:35:52.377Z,28.88
2023-02-10T08:36:55.016Z,29.80
2023-02-10T08:37:56.598Z,29.50
2023-02-10T08:38:59.414Z,30.10
2023-02-10T08:40:08.774Z,28.75
2023-02-10T08:41:22.617Z,30.08
2023-02-10T08:42:25.817Z,30.63
2023-02-10T08:43:28.088Z,31.52
2023-02-10T08:44:31.460Z,32.08
2023-02-10T08:45:33.041Z,32.65
2023-02-10T08:46:36.296Z,34.13
2023-02-10T08:47:39.646Z,32.45
2023-02-10T08:48:42.354Z,30.77
2023-02-10T08:49:44.961Z,30.17
2023-02-10T08:50:46.513Z,31.38
2023-02-10T08:51:49.005Z,30.13
2023-02-10T08:52:51.924Z,32.05
2023-02-10T08:53:56.782Z,29.95
2023-02-10T08:55:12.059Z,30.63
2023-02-10T08:56:25.938Z,28.95
2023-02-10T08:57:28.183Z,28.65
2023-02-10T08:58:30.738Z,29.27
2023-02-10T08:59:43.271Z,28.55
2023-02-10T09:00:46.319Z,27.98
2023-02-10T09:01:57.412Z,26.80
2023-02-10T09:03:00.172Z,28.58
2023-02-10T09:04:03.245Z,29.55
2023-02-10T09:05:11.097Z,29.60
2023-02-10T09:06:16.655Z,29.58
2023-02-10T09:07:23.978Z,29.50
2023-02-10T09:08:36.650Z,28.08
2023-02-10T09:09:42.123Z,27.75
2023-02-10T09:10:54.598Z,27.58
2023-02-10T09:11:58.576Z,29.67
2023-02-10T09:13:00.679Z,29.13
2023-02-10T09:14:03.278Z,29.17
2023-02-10T09:15:06.207Z,28.67
2023-02-10T09:16:08.543Z,29.65
2023-02-10T09:17:12.738Z,27.92
2023-02-10T09:18:15.617Z,30.35
2023-02-10T09:19:21.010Z,30.23
2023-02-10T09:20:27.044Z,29.98
2023-02-10T09:21:41.407Z,34.65
2023-02-10T09:22:50.588Z,34.35
2023-02-10T09:23:53.590Z,32.50
2023-02-10T09:24:56.084Z,34.80
2023-02-10T09:26:01.317Z,35.85
2023-02-10T09:27:13.536Z,33.40
2023-02-10T09:28:16.105Z,34.70
2023-02-10T09:29:17.707Z,34.58
2023-02-10T09:30:26.490Z,35.83
2023-02-10T09:31:39.055Z,33.50
2023-02-10T09:32:52.237Z,34.92
2023-02-10T09:34:05.191Z,34.05
2023-02-10T09:35:07.852Z,34.10
2023-02-10T09:36:13.807Z,36.50
2023-02-10T09:37:16.361Z,34.45
2023-02-10T09:38:18.978Z,34.33
2023-02-10T09:39:21.473Z,35.92
2023-02-10T09:40:29.339Z,34.40
2023-02-10T09:41:53.172Z,34.50
2023-02-10T09:43:07.704Z,34.42
2023-02-10T09:44:23.566Z,32.95
2023-02-10T09:45:41.038Z,31.70
2023-02-10T09:47:10.777Z,30.88
2023-02-10T09:48:30.986Z,31.30
2023-02-10T09:49:49.890Z,34.28
2023-02-10T09:51:01.506Z,32.78
2023-02-10T09:52:22.824Z,33.90
2023-02-10T09:53:28.972Z,33.30
2023-02-10T09:54:42.134Z,29.98
2023-02-10T09:55:49.042Z,29.85
2023-02-10T09:56:52.406Z,30.13
2023-02-10T09:58:15.674Z,30.42
2023-02-10T09:59:28.871Z,26.98
2023-02-10T10:00:43.996Z,27.85
2023-02-10T10:01:51.170Z,29.77
2023-02-10T10:02:55.376Z,27.20
2023-02-10T10:04:02.687Z,30.75
2023-02-10T10:05:17.883Z,28.58
2023-02-10T10:06:25.114Z,27.38
2023-02-10T10:07:32.236Z,27.45
2023-02-10T10:08:45.576Z,30.83
2023-02-10T10:09:55.883Z,29.48
2023-02-10T10:11:03.703Z,29.33
2023-02-10T10:12:18.959Z,27.85
2023-02-10T10:13:26.493Z,28.52
2023-02-10T10:14:31.515Z,28.67
2023-02-10T10:15:41.337Z,27.90
2023-02-10T10:16:54.673Z,27.55
2023-02-10T10:18:07.898Z,26.13
2023-02-10T10:19:20.823Z,27.50
2023-02-10T10:20:37.998Z,27.42
2023-02-10T10:21:52.844Z,27.17
2023-02-10T10:23:17.536Z,26.75
2023-02-10T10:24:34.389Z,30.30
2023-02-10T10:26:02.350Z,26.63
2023-02-10T10:27:22.085Z,25.75
2023-02-10T10:30:51.462Z,27.08
2023-02-10T10:32:07.444Z,24.65
2023-02-10T10:33:22.491Z,29.17
2023-02-10T10:34:29.835Z,29.25
2023-02-10T10:35:41.282Z,28.52
2023-02-10T10:36:47.769Z,31.50
2023-02-10T10:37:51.125Z,32.85
2023-02-10T10:38:55.257Z,34.90
2023-02-10T10:40:00.277Z,32.20
2023-02-10T10:41:09.328Z,33.55
2023-02-10T10:42:20.556Z,30.95
2023-02-10T10:43:26.833Z,31.92
2023-02-10T10:44:31.924Z,26.88
2023-02-10T10:45:38.658Z,29.17
2023-02-10T10:46:47.297Z,29.35
2023-02-10T10:47:54.593Z,30.30
2023-02-10T10:48:58.248Z,29.33
2023-02-10T10:50:01.637Z,28.70
2023-02-10T10:51:15.712Z,27.35
2023-02-10T10:52:32.672Z,29.45
2023-02-10T10:53:45.426Z,29.95
2023-02-10T10:54:57.191Z,29.15
2023-02-10T10:56:00.925Z,30.65
2023-02-10T10:57:07.377Z,27.23
2023-02-10T10:58:22.367Z,28.90
2023-02-10T10:59:33.002Z,29.35
2023-02-10T11:00:35.513Z,27.70
2023-02-10T11:01:43.931Z,27.80
2023-02-10T11:02:56.452Z,28.20
2023-02-10T11:04:05.643Z,28.85
2023-02-10T11:05:15.438Z,25.50
2023-02-10T11:06:20.403Z,29.10
2023-02-10T11:07:25.049Z,29.92
2023-02-10T11:08:31.883Z,30.70
2023-02-10T11:14:23.685Z,27.42
2023-02-10T11:15:37.993Z,27.23
2023-02-10T11:16:45.879Z,27.35
2023-02-10T11:17:51.434Z,28.05
2023-02-10T11:19:00.847Z,25.98
2023-02-10T11:20:24.849Z,26.88
2023-02-10T11:24:46.932Z,27.23
2023-02-10T11:25:59.330Z,26.55
2023-02-10T11:27:04.568Z,25.40
2023-02-10T11:28:09.717Z,29.45
2023-02-10T11:29:12.053Z,27.45
2023-02-10T11:30:27.276Z,29.38
2023-02-10T11:31:33.493Z,26.92
2023-02-10T11:32:39.568Z,26.05
2023-02-10T11:33:43.078Z,28.15
2023-02-10T11:34:48.639Z,25.33
2023-02-10T11:35:53.443Z,25.25
2023-02-10T11:36:59.973Z,24.30
2023-02-10T11:38:06.242Z,26.17
2023-02-10T11:39:21.467Z,25.40
2023-02-10T11:40:27.791Z,26.98
2023-02-10T11:41:30.521Z,27.38
2023-02-10T11:42:37.814Z,23.48
2023-02-10T11:48:28.835Z,22.67
2023-02-10T11:49:34.338Z,24.77
2023-02-10T11:50:37.867Z,25.58
2023-02-10T11:51:40.369Z,23.90
2023-02-10T11:55:14.235Z,21.08
2023-02-10T11:56:52.680Z,20.73
2023-02-10T11:58:23.829Z,19.58
2023-02-10T11:59:37.818Z,20.48
2023-02-10T12:00:50.153Z,20.20
2023-02-10T12:01:58.689Z,21.27
2023-02-10T12:03:26.855Z,21.50
2023-02-10T12:04:52.246Z,21.35
2023-02-10T12:05:59.976Z,17.88
2023-02-10T12:07:09.259Z,20.48
2023-02-10T12:08:23.733Z,20.15
2023-02-10T12:09:33.472Z,19.15
2023-02-10T12:10:42.907Z,21.50
2023-02-10T12:11:56.998Z,20.80
2023-02-10T12:13:04.711Z,21.50
2023-02-10T12:14:27.850Z,23.98
2023-02-10T12:15:39.942Z,23.20
2023-02-10T12:16:51.815Z,23.17
2023-02-10T12:18:11.050Z,22.27
2023-02-10T12:19:23.293Z,21.58
2023-02-10T12:20:42.802Z,22.85
2023-02-10T12:22:07.576Z,24.73
2023-02-10T12:23:27.941Z,22.05
2023-02-10T12:24:44.869Z,23.23
2023-02-10T12:25:54.696Z,24.08
2023-02-10T12:27:15.744Z,23.30
2023-02-10T12:28:39.084Z,22.45
2023-02-10T12:29:52.839Z,23.73
2023-02-10T12:31:20.882Z,22.40
2023-02-10T12:32:39.221Z,21.83
2023-02-10T12:33:51.177Z,22.38
2023-02-10T12:35:10.296Z,23.88
2023-02-10T12:36:20.199Z,25.05
2023-02-10T12:37:41.977Z,23.73
2023-02-10T12:38:59.080Z,24.20
2023-02-10T12:40:29.076Z,24.35
2023-02-10T12:41:44.121Z,24.25
2023-02-10T12:42:56.899Z,25.27
2023-02-10T12:44:07.499Z,27.10
2023-02-10T12:45:19.005Z,24.77
2023-02-10T12:46:30.863Z,25.70
2023-02-10T12:47:42.007Z,26.30
2023-02-10T12:48:50.965Z,24.85
2023-02-10T12:50:04.017Z,25.95
2023-02-10T12:51:25.069Z,25.65
2023-02-10T12:52:36.127Z,26.10
2023-02-10T12:53:43.383Z,25.27
2023-02-10T12:54:59.715Z,24.70
2023-02-10T12:56:21.627Z,26.38
2023-02-10T12:57:29.325Z,25.33
2023-02-10T12:58:37.447Z,26.88
2023-02-10T12:59:50.054Z,25.08
2023-02-10T13:00:59.577Z,28.35
2023-02-10T13:02:06.378Z,26.35
2023-02-10T13:03:12.836Z,24.65
2023-02-10T13:04:22.102Z,27.60
2023-02-10T13:05:30.015Z,25.60
2023-02-10T13:06:38.790Z,25.70
2023-02-10T13:07:47.744Z,24.75
2023-02-10T13:08:53.792Z,24.73
2023-02-10T13:10:17.946Z,26.40
2023-02-10T13:11:28.851Z,26.25
2023-02-10T13:12:34.793Z,24.77
2023-02-10T13:13:42.591Z,26.00
2023-02-10T13:14:46.941Z,26.63
2023-02-10T13:15:53.959Z,26.67
2023-02-10T13:16:58.756Z,27.30
2023-02-10T13:18:02.380Z,26.75
2023-02-10T13:19:15.032Z,26.48
2023-02-10T13:20:32.220Z,24.90
2023-02-10T13:21:46.334Z,23.00
2023-02-10T13:23:01.523Z,24.10
2023-02-10T13:24:11.236Z,24.23
2023-02-10T13:25:18.047Z,24.02
2023-02-10T13:26:39.714Z,23.25
2023-02-10T13:27:54.731Z,23.63
2023-02-10T13:29:08.124Z,25.85
2023-02-10T13:30:29.089Z,25.17
2023-02-10T13:31:55.394Z,26.98
2023-02-10T13:33:09.809Z,23.33
2023-02-10T13:34:20.206Z,26.58
2023-02-10T13:35:26.592Z,26.48
2023-02-10T13:36:31.541Z,27.30
2023-02-10T13:37:40.949Z,23.75
2023-02-10T13:38:44.013Z,24.33
2023-02-10T13:39:53.731Z,26.48
2023-02-10T13:41:18.800Z,29.15
2023-02-10T13:42:26.780Z,25.58
2023-02-10T13:43:32.745Z,23.70
2023-02-10T13:44:41.611Z,22.60
2023-02-10T13:49:10.826Z,20.15
2023-02-10T13:50:29.710Z,19.25
2023-02-10T13:51:35.349Z,21.27
2023-02-10T13:52:52.105Z,21.00
2023-02-10T13:53:54.629Z,22.08
2023-02-10T13:55:02.683Z,21.33
2023-02-10T13:56:25.850Z,20.83
2023-02-10T14:02:26.168Z,19.50
2023-02-10T14:03:35.115Z,22.58
2023-02-10T14:04:48.906Z,20.23
2023-02-10T14:05:54.844Z,20.75
2023-02-10T14:06:57.854Z,19.50
2023-02-10T14:08:13.491Z,24.23
2023-02-10T14:09:20.993Z,19.85
2023-02-10T14:10:36.999Z,20.75
2023-02-10T14:11:43.182Z,20.83
2023-02-10T14:12:56.545Z,18.67
2023-02-10T14:14:00.992Z,21.20
2023-02-10T14:15:25.329Z,19.90
2023-02-10T14:16:32.726Z,20.17
2023-02-10T14:17:36.992Z,22.13
2023-02-10T14:18:40.860Z,19.00
2023-02-10T14:19:45.099Z,21.80
2023-02-10T14:20:48.585Z,20.75
2023-02-10T14:21:53.272Z,21.48
2023-02-10T14:22:59.316Z,20.73
2023-02-10T14:24:03.523Z,19.80
2023-02-10T14:25:20.643Z,18.23
2023-02-10T14:26:30.602Z,20.65
2023-02-10T14:27:39.828Z,18.92
2023-02-10T14:28:48.191Z,18.42
2023-02-10T14:29:53.518Z,17.85
2023-02-10T14:31:13.188Z,17.63
2023-02-10T14:32:18.508Z,20.08
2023-02-10T14:33:26.511Z,19.58
2023-02-10T14:34:30.635Z,18.48
2023-02-10T14:35:37.019Z,18.25
2023-02-10T14:36:39.464Z,20.65
2023-02-10T14:37:49.664Z,20.85
2023-02-10T14:38:54.462Z,21.15
2023-02-10T14:40:00.185Z,18.02
2023-02-10T14:41:19.732Z,20.67
2023-02-10T14:43:33.321Z,20.42
2023-02-10T14:44:40.753Z,20.08
2023-02-10T14:45:47.549Z,20.15
2023-02-10T14:46:56.286Z,20.67
2023-02-10T14:48:00.320Z,19.52
2023-02-10T14:49:05.322Z,19.88
2023-02-10T14:50:08.285Z,19.77
2023-02-10T14:51:23.155Z,20.45
2023-02-10T14:52:37.152Z,20.02
2023-02-10T14:53:42.153Z,19.65
2023-02-10T14:55:44.007Z,20.30